createdAt,value
2022-10-07T00:01:03.522Z,13.09
2022-10-07T00:03:35.481Z,13.07
2022-10-07T00:06:19.093Z,13.02
2022-10-07T00:08:52.983Z,13.02
2022-10-07T00:11:27.540Z,13.00
2022-10-07T00:13:59.600Z,12.96
2022-10-07T00:16:34.860Z,12.90
2022-10-07T00:19:07.717Z,12.91
2022-10-07T00:21:38.033Z,12.90
2022-10-07T00:24:07.821Z,12.83
2022-10-07T00:26:37.559Z,12.79
2022-10-07T00:29:06.960Z,12.72
2022-10-07T00:31:37.346Z,12.71
2022-10-07T00:34:05.519Z,12.67
2022-10-07T00:36:37.496Z,12.63
2022-10-07T00:39:15.343Z,12.58
2022-10-07T00:41:50.379Z,12.53
2022-10-07T00:44:32.849Z,12.46
2022-10-07T00:47:07.051Z,12.39
2022-10-07T00:49:49.527Z,12.33
2022-10-07T00:52:20.454Z,12.28
2022-10-07T00:54:53.446Z,12.26
2022-10-07T00:57:25.489Z,12.19
2022-10-07T00:59:55.647Z,12.08
2022-10-07T01:02:25.500Z,12.02
2022-10-07T01:04:56.888Z,11.99
2022-10-07T01:07:24.650Z,12.00
2022-10-07T01:09:55.188Z,11.97
2022-10-07T01:12:40.292Z,11.90
2022-10-07T01:15:18.126Z,11.86
2022-10-07T01:18:11.299Z,11.85
2022-10-07T01:20:58.014Z,11.86
2022-10-07T01:23:39.980Z,11.86
2022-10-07T01:26:51.296Z,11.81
2022-10-07T01:29:56.197Z,11.83
2022-10-07T01:33:04.976Z,11.83
2022-10-07T01:35:37.949Z,11.86
2022-10-07T01:38:10.988Z,11.88
2022-10-07T01:40:48.406Z,11.85
2022-10-07T01:43:20.771Z,11.88
2022-10-07T01:45:49.207Z,11.89
2022-10-07T01:48:17.105Z,11.91
2022-10-07T01:50:45.571Z,11.87
2022-10-07T01:53:39.205Z,11.86
2022-10-07T01:56:46.592Z,11.80
2022-10-07T01:59:35.512Z,11.75
2022-10-07T02:02:18.788Z,11.72
2022-10-07T02:05:30.655Z,11.69
2022-10-07T02:08:24.865Z,11.64
2022-10-07T02:11:16.755Z,11.60
2022-10-07T02:13:56.085Z,11.57
2022-10-07T02:16:35.522Z,11.59
2022-10-07T02:19:11.118Z,11.58
2022-10-07T02:21:40.506Z,11.56
2022-10-07T02:24:12.236Z,11.53
2022-10-07T02:26:43.515Z,11.53
2022-10-07T02:29:14.690Z,11.50
2022-10-07T02:31:47.671Z,11.51
2022-10-07T02:34:20.275Z,11.53
2022-10-07T02:37:05.808Z,11.49
2022-10-07T02:39:34.204Z,11.51
2022-10-07T02:42:14.122Z,11.45
2022-10-07T02:45:07.016Z,11.39
2022-10-07T02:47:45.278Z,11.36
2022-10-07T02:50:22.540Z,11.35
2022-10-07T02:52:55.817Z,11.31
2022-10-07T02:55:27.630Z,11.27
2022-10-07T02:58:00.652Z,11.25
2022-10-07T03:00:34.775Z,11.23
2022-10-07T03:03:05.158Z,11.24
2022-10-07T03:05:35.528Z,11.24
2022-10-07T03:08:11.346Z,11.19
2022-10-07T03:10:38.950Z,11.20
2022-10-07T03:13:06.117Z,11.18
2022-10-07T03:15:41.902Z,11.13
2022-10-07T03:18:26.296Z,11.14
2022-10-07T03:20:55.989Z,11.08
2022-10-07T03:23:25.166Z,10.99
2022-10-07T03:25:54.925Z,10.97
2022-10-07T03:28:24.651Z,10.89
2022-10-07T03:30:53.117Z,10.83
2022-10-07T03:33:25.866Z,10.77
2022-10-07T03:35:53.970Z,10.77
2022-10-07T03:38:21.959Z,10.76
2022-10-07T03:40:49.957Z,10.75
2022-10-07T03:43:18.268Z,10.77
2022-10-07T03:45:50.024Z,10.74
2022-10-07T03:48:18.000Z,10.74
2022-10-07T03:50:57.759Z,10.72
2022-10-07T03:53:29.720Z,10.68
2022-10-07T03:55:58.152Z,10.66
2022-10-07T03:58:25.909Z,10.66
2022-10-07T04:01:03.543Z,10.63
2022-10-07T04:03:30.963Z,10.60
2022-10-07T04:05:59.760Z,10.62
2022-10-07T04:08:29.284Z,10.64
2022-10-07T04:10:59.737Z,10.65
2022-10-07T04:13:27.381Z,10.67
2022-10-07T04:15:55.189Z,10.65
2022-10-07T04:18:23.910Z,10.65
2022-10-07T04:20:51.122Z,10.62
2022-10-07T04:23:19.569Z,10.62
2022-10-07T04:25:47.684Z,10.63
2022-10-07T04:28:22.176Z,10.62
2022-10-07T04:30:51.607Z,10.62
2022-10-07T04:33:21.265Z,10.51
2022-10-07T04:35:50.337Z,10.54
2022-10-07T04:38:18.983Z,10.50
2022-10-07T04:40:50.152Z,10.44
2022-10-07T04:43:23.716Z,10.44
2022-10-07T04:45:54.482Z,10.39
2022-10-07T04:48:24.114Z,10.41
2022-10-07T04:50:54.856Z,10.43
2022-10-07T04:53:22.952Z,10.40
2022-10-07T04:55:54.668Z,10.44
2022-10-07T04:58:22.017Z,10.43
2022-10-07T05:00:53.180Z,10.40
2022-10-07T05:03:23.436Z,10.46
2022-10-07T05:05:55.362Z,10.52
2022-10-07T05:08:25.022Z,10.57
2022-10-07T05:11:01.133Z,10.63
2022-10-07T05:13:30.344Z,10.68
2022-10-07T05:16:00.769Z,10.75
2022-10-07T05:18:29.856Z,10.80
2022-10-07T05:20:57.376Z,10.84
2022-10-07T05:23:28.646Z,10.90
2022-10-07T05:26:08.090Z,10.85
2022-10-07T05:28:37.702Z,10.89
2022-10-07T05:31:09.496Z,10.89
2022-10-07T05:33:38.239Z,10.90
2022-10-07T05:36:08.172Z,10.94
2022-10-07T05:38:36.958Z,10.92
2022-10-07T05:41:09.882Z,10.91
2022-10-07T05:43:42.366Z,10.85
2022-10-07T05:46:16.646Z,10.75
2022-10-07T05:48:52.313Z,10.59
2022-10-07T05:51:21.459Z,10.52
2022-10-07T05:53:49.354Z,10.51
2022-10-07T05:56:22.723Z,10.61
2022-10-07T05:58:52.583Z,10.81
2022-10-07T06:01:24.890Z,10.98
2022-10-07T06:03:55.544Z,11.15
2022-10-07T06:06:24.302Z,11.28
2022-10-07T06:08:53.678Z,11.37
2022-10-07T06:11:40.000Z,11.47
2022-10-07T06:14:07.458Z,11.60
2022-10-07T06:16:34.801Z,11.71
2022-10-07T06:19:02.378Z,11.84
2022-10-07T06:21:29.570Z,11.95
2022-10-07T06:23:58.558Z,11.95
2022-10-07T06:26:26.198Z,12.04
2022-10-07T06:28:53.621Z,12.11
2022-10-07T06:31:26.016Z,12.24
2022-10-07T06:33:54.356Z,12.39
2022-10-07T06:36:21.708Z,12.54
2022-10-07T06:38:51.963Z,12.60
2022-10-07T06:41:20.068Z,12.72
2022-10-07T06:43:48.046Z,12.77
2022-10-07T06:46:20.213Z,12.88
2022-10-07T06:48:47.951Z,12.96
2022-10-07T06:51:18.715Z,13.04
2022-10-07T06:53:50.676Z,13.14
2022-10-07T06:56:18.059Z,13.25
2022-10-07T06:58:45.502Z,13.30
2022-10-07T07:01:13.210Z,13.37
2022-10-07T07:03:40.793Z,13.41
2022-10-07T07:06:11.058Z,13.53
2022-10-07T07:08:41.181Z,13.64
2022-10-07T07:11:32.971Z,13.73
2022-10-07T07:14:00.683Z,13.87
2022-10-07T07:16:28.520Z,14.01
2022-10-07T07:19:01.747Z,14.23
2022-10-07T07:21:30.242Z,14.52
2022-10-07T07:23:58.808Z,14.94
2022-10-07T07:26:28.297Z,15.36
2022-10-07T07:29:02.738Z,16.77
2022-10-07T07:31:33.610Z,20.81
2022-10-07T07:34:05.609Z,23.71
2022-10-07T07:36:36.263Z,26.24
2022-10-07T07:39:11.510Z,28.34
2022-10-07T07:41:42.274Z,30.03
2022-10-07T07:44:12.676Z,31.51
2022-10-07T07:46:44.132Z,31.25
2022-10-07T07:49:13.424Z,32.38
2022-10-07T07:51:44.647Z,33.10
2022-10-07T07:54:13.186Z,33.70
2022-10-07T07:56:41.940Z,34.59
2022-10-07T07:59:10.764Z,35.49
2022-10-07T08:01:39.074Z,36.38
2022-10-07T08:04:07.146Z,37.70
2022-10-07T08:06:34.924Z,38.72
2022-10-07T08:09:02.468Z,39.30
2022-10-07T08:11:30.263Z,40.39
2022-10-07T08:13:57.779Z,41.28
2022-10-07T08:16:28.833Z,41.52
2022-10-07T08:18:58.196Z,42.02
2022-10-07T08:21:32.974Z,43.22
2022-10-07T08:24:04.215Z,42.97
2022-10-07T08:26:34.716Z,43.74
2022-10-07T08:29:02.290Z,44.21
2022-10-07T08:31:30.426Z,43.79
2022-10-07T08:34:01.825Z,44.97
2022-10-07T08:36:32.927Z,45.55
2022-10-07T08:39:02.314Z,45.94
2022-10-07T08:41:54.395Z,46.12
2022-10-07T08:44:48.034Z,46.30
2022-10-07T08:47:30.569Z,47.59
2022-10-07T08:50:18.114Z,48.61
2022-10-07T08:53:00.117Z,48.55
2022-10-07T08:55:49.994Z,46.99
2022-10-07T08:58:31.047Z,48.38
2022-10-07T09:01:40.689Z,49.87
2022-10-07T09:04:34.908Z,50.00
2022-10-07T09:07:27.061Z,50.45
2022-10-07T09:10:00.960Z,51.29
2022-10-07T09:12:52.521Z,50.95
2022-10-07T09:15:41.936Z,51.20
2022-10-07T09:18:24.946Z,49.85
2022-10-07T09:20:56.198Z,51.03
2022-10-07T09:23:30.130Z,48.92
2022-10-07T09:25:57.941Z,47.83
2022-10-07T09:28:34.517Z,46.04
2022-10-07T09:31:03.166Z,45.59
2022-10-07T09:33:31.332Z,46.13
2022-10-07T09:36:11.677Z,46.20
2022-10-07T09:38:46.036Z,47.97
2022-10-07T09:41:36.087Z,49.61
2022-10-07T09:44:15.665Z,47.51
2022-10-07T09:46:59.475Z,51.27
2022-10-07T09:49:29.905Z,50.56
2022-10-07T09:52:03.377Z,48.48
2022-10-07T09:54:36.314Z,48.00
2022-10-07T09:57:05.675Z,50.57
2022-10-07T09:59:37.652Z,50.18
2022-10-07T10:02:20.207Z,52.16
2022-10-07T10:04:57.334Z,49.42
2022-10-07T10:07:32.634Z,50.43
2022-10-07T10:10:28.817Z,48.89
2022-10-07T10:12:59.040Z,50.07
2022-10-07T10:15:45.029Z,49.72
2022-10-07T10:18:37.192Z,49.64
2022-10-07T10:21:31.047Z,47.97
2022-10-07T10:24:15.224Z,48.56
2022-10-07T10:27:04.450Z,48.42
2022-10-07T10:29:48.569Z,49.42
2022-10-07T10:32:51.465Z,50.35
2022-10-07T10:35:35.802Z,54.05
2022-10-07T10:38:51.864Z,56.63
2022-10-07T10:41:56.291Z,58.32
2022-10-07T10:44:54.476Z,59.32
2022-10-07T10:48:25.838Z,59.28
2022-10-07T10:50:53.441Z,59.73
2022-10-07T10:53:52.739Z,59.83
2022-10-07T10:57:09.599Z,59.29
2022-10-07T10:59:45.766Z,60.92
2022-10-07T11:03:14.937Z,61.67
2022-10-07T11:05:44.212Z,62.63
2022-10-07T11:08:23.123Z,63.03
2022-10-07T11:10:57.608Z,62.85
2022-10-07T11:13:51.972Z,63.10
2022-10-07T11:16:45.275Z,63.95
2022-10-07T11:19:25.059Z,64.19
2022-10-07T11:22:00.046Z,63.64
2022-10-07T11:24:34.827Z,64.03
2022-10-07T11:27:15.003Z,64.18
2022-10-07T11:30:17.768Z,63.92
2022-10-07T11:32:47.741Z,63.22
2022-10-07T11:35:49.295Z,63.48
2022-10-07T11:38:31.402Z,64.09
2022-10-07T11:41:09.602Z,64.93
2022-10-07T11:43:56.937Z,64.44
2022-10-07T11:46:46.277Z,64.08
2022-10-07T11:49:23.670Z,63.61
2022-10-07T11:52:04.614Z,62.96
2022-10-07T11:55:09.302Z,62.14
2022-10-07T11:57:44.015Z,63.32
2022-10-07T12:00:33.126Z,63.30
2022-10-07T12:03:33.569Z,63.66
2022-10-07T12:06:13.767Z,63.30
2022-10-07T12:08:44.223Z,63.16
2022-10-07T12:11:16.729Z,63.16
2022-10-07T12:13:54.169Z,63.17
2022-10-07T12:16:24.354Z,63.25
2022-10-07T12:19:07.372Z,61.88
2022-10-07T12:21:59.338Z,61.36
2022-10-07T12:24:28.231Z,61.53
2022-10-07T12:27:18.221Z,61.65
2022-10-07T12:30:02.482Z,62.28
2022-10-07T12:32:39.656Z,62.44
2022-10-07T12:35:37.943Z,62.13
2022-10-07T12:38:11.073Z,62.53
2022-10-07T12:40:41.749Z,61.87
2022-10-07T12:43:47.878Z,59.34
2022-10-07T12:46:21.606Z,58.71
2022-10-07T12:49:03.263Z,58.83
2022-10-07T12:51:38.781Z,57.52
2022-10-07T12:54:20.381Z,57.59
2022-10-07T12:56:49.365Z,57.49
2022-10-07T12:59:49.795Z,57.39
2022-10-07T13:03:08.997Z,56.95
2022-10-07T13:06:14.482Z,57.42
2022-10-07T13:09:04.355Z,56.98
2022-10-07T13:11:34.454Z,57.35
2022-10-07T13:14:16.753Z,57.37
2022-10-07T13:17:35.381Z,56.67
2022-10-07T13:20:38.946Z,56.33
2022-10-07T13:23:17.338Z,56.02
2022-10-07T13:25:58.036Z,55.23
2022-10-07T13:28:38.796Z,55.47
2022-10-07T13:31:28.664Z,55.70
2022-10-07T13:33:59.399Z,55.30
2022-10-07T13:36:33.100Z,54.99
2022-10-07T13:39:23.193Z,53.85
2022-10-07T13:41:58.158Z,52.24
2022-10-07T13:44:32.158Z,53.02
2022-10-07T13:47:10.128Z,52.75
2022-10-07T13:49:44.156Z,52.80
2022-10-07T13:52:37.228Z,52.70
2022-10-07T13:55:31.482Z,51.60
2022-10-07T13:58:04.599Z,50.89
2022-10-07T14:00:36.117Z,50.67
2022-10-07T14:03:17.464Z,49.97
2022-10-07T14:05:52.508Z,49.57
2022-10-07T14:08:24.823Z,49.13
2022-10-07T14:10:59.914Z,49.14
2022-10-07T14:13:29.087Z,49.03
2022-10-07T14:15:59.443Z,48.91
2022-10-07T14:18:29.819Z,48.29
2022-10-07T14:21:10.801Z,48.49
2022-10-07T14:23:38.439Z,48.48
2022-10-07T14:26:19.067Z,48.43
2022-10-07T14:28:46.533Z,48.06
2022-10-07T14:31:40.119Z,48.18
2022-10-07T14:34:38.441Z,47.95
2022-10-07T14:37:13.783Z,46.90
2022-10-07T14:39:50.039Z,45.99
2022-10-07T14:42:34.960Z,45.81
2022-10-07T14:45:08.327Z,45.70
2022-10-07T14:47:36.399Z,45.30
2022-10-07T14:50:04.347Z,45.05
2022-10-07T14:52:46.779Z,44.45
2022-10-07T14:55:20.632Z,44.10
2022-10-07T14:57:48.233Z,43.61
2022-10-07T15:00:25.679Z,42.79
2022-10-07T15:02:58.245Z,40.97
2022-10-07T15:05:27.021Z,38.90
2022-10-07T15:07:54.326Z,37.42
2022-10-07T15:10:26.415Z,36.19
2022-10-07T15:12:56.135Z,35.21
2022-10-07T15:15:23.462Z,34.20
2022-10-07T15:17:50.968Z,33.40
2022-10-07T15:20:18.488Z,32.79
2022-10-07T15:22:46.303Z,31.97
2022-10-07T15:25:15.410Z,31.37
2022-10-07T15:27:43.496Z,30.73
2022-10-07T15:30:11.926Z,30.27
2022-10-07T15:32:39.163Z,29.88
2022-10-07T15:35:07.612Z,29.45
2022-10-07T15:37:34.849Z,28.88
2022-10-07T15:40:02.121Z,28.24
2022-10-07T15:42:29.729Z,27.74
2022-10-07T15:44:57.035Z,27.31
2022-10-07T15:47:24.492Z,26.81
2022-10-07T15:49:51.834Z,26.44
2022-10-07T15:52:19.139Z,25.93
2022-10-07T15:54:46.667Z,25.47
2022-10-07T15:57:14.796Z,25.24
2022-10-07T15:59:42.597Z,25.00
2022-10-07T16:02:21.443Z,24.62
2022-10-07T16:04:49.082Z,24.34
2022-10-07T16:07:16.918Z,24.04
2022-10-07T16:09:44.287Z,23.80
2022-10-07T16:12:11.894Z,23.60
2022-10-07T16:14:39.281Z,23.36
2022-10-07T16:17:06.503Z,23.04
2022-10-07T16:19:33.924Z,23.09
2022-10-07T16:22:01.369Z,23.05
2022-10-07T16:24:34.049Z,23.07
2022-10-07T16:27:02.674Z,22.77
2022-10-07T16:29:48.653Z,22.35
2022-10-07T16:32:16.550Z,22.06
2022-10-07T16:34:44.600Z,22.14
2022-10-07T16:37:13.169Z,22.13
2022-10-07T16:39:40.681Z,22.12
2022-10-07T16:42:08.249Z,22.10
2022-10-07T16:44:35.938Z,22.06
2022-10-07T16:47:03.574Z,22.05
2022-10-07T16:49:30.946Z,21.93
2022-10-07T16:51:58.922Z,21.88
2022-10-07T16:54:29.995Z,21.84
2022-10-07T16:56:57.716Z,21.75
2022-10-07T16:59:26.339Z,21.63
2022-10-07T17:01:56.820Z,21.56
2022-10-07T17:04:25.429Z,21.50
2022-10-07T17:06:54.185Z,21.36
2022-10-07T17:09:24.642Z,21.27
2022-10-07T17:11:52.598Z,21.13
2022-10-07T17:14:22.900Z,21.06
2022-10-07T17:16:57.759Z,20.91
2022-10-07T17:19:28.294Z,20.89
2022-10-07T17:21:59.312Z,20.78
2022-10-07T17:24:27.328Z,20.71
2022-10-07T17:26:56.319Z,20.66
2022-10-07T17:29:26.200Z,20.62
2022-10-07T17:31:54.277Z,20.54
2022-10-07T17:34:22.913Z,20.51
2022-10-07T17:36:50.737Z,20.44
2022-10-07T17:39:21.676Z,20.39
2022-10-07T17:41:49.098Z,20.23
2022-10-07T17:44:17.512Z,19.88
2022-10-07T17:46:45.387Z,19.72
2022-10-07T17:49:13.556Z,19.60
2022-10-07T17:51:43.138Z,19.45
2022-10-07T17:54:13.806Z,19.44
2022-10-07T17:56:44.588Z,19.44
2022-10-07T17:59:12.441Z,19.33
2022-10-07T18:01:41.639Z,19.29
2022-10-07T18:04:22.474Z,19.23
2022-10-07T18:06:52.269Z,19.24
2022-10-07T18:09:22.145Z,19.16
2022-10-07T18:12:08.177Z,19.04
2022-10-07T18:14:54.678Z,19.00
2022-10-07T18:17:24.589Z,18.93
2022-10-07T18:19:52.681Z,18.76
2022-10-07T18:22:20.252Z,18.69
2022-10-07T18:24:47.760Z,18.71
2022-10-07T18:27:15.640Z,18.52
2022-10-07T18:29:42.945Z,18.46
2022-10-07T18:32:10.647Z,18.34
2022-10-07T18:34:38.090Z,18.29
2022-10-07T18:37:05.384Z,18.21
2022-10-07T18:39:33.059Z,18.15
2022-10-07T18:42:00.434Z,18.05
2022-10-07T18:44:27.961Z,18.03
2022-10-07T18:46:55.526Z,17.96
2022-10-07T18:49:23.412Z,17.81
2022-10-07T18:51:51.175Z,17.85
2022-10-07T18:54:20.350Z,17.93
2022-10-07T18:56:49.690Z,17.94
2022-10-07T18:59:18.944Z,17.94
2022-10-07T19:01:50.396Z,17.92
2022-10-07T19:04:19.777Z,17.83
2022-10-07T19:06:48.435Z,17.85
2022-10-07T19:09:22.246Z,17.84
2022-10-07T19:11:50.098Z,17.69
2022-10-07T19:14:17.730Z,17.66
2022-10-07T19:16:49.389Z,17.55
2022-10-07T19:19:20.963Z,17.67
2022-10-07T19:21:55.041Z,17.63
2022-10-07T19:24:45.694Z,17.51
2022-10-07T19:27:14.319Z,17.48
2022-10-07T19:29:41.795Z,17.51
2022-10-07T19:32:09.277Z,17.49
2022-10-07T19:34:37.494Z,17.49
2022-10-07T19:37:05.193Z,17.40
2022-10-07T19:39:32.882Z,17.40
2022-10-07T19:42:00.549Z,17.36
2022-10-07T19:44:28.004Z,17.30
2022-10-07T19:46:55.388Z,17.32
2022-10-07T19:49:22.810Z,17.33
2022-10-07T19:51:50.088Z,17.26
2022-10-07T19:54:17.502Z,17.26
2022-10-07T19:56:45.426Z,17.26
2022-10-07T19:59:14.779Z,17.23
2022-10-07T20:01:45.324Z,17.21
2022-10-07T20:04:21.747Z,17.20
2022-10-07T20:06:49.299Z,17.23
2022-10-07T20:09:19.359Z,17.21
2022-10-07T20:11:47.146Z,17.18
2022-10-07T20:14:16.206Z,17.11
2022-10-07T20:16:44.382Z,17.07
2022-10-07T20:19:16.458Z,17.05
2022-10-07T20:21:44.323Z,17.00
2022-10-07T20:24:17.899Z,16.98
2022-10-07T20:26:45.383Z,16.92
2022-10-07T20:29:16.161Z,16.92
2022-10-07T20:31:45.008Z,16.91
2022-10-07T20:34:16.777Z,16.88
2022-10-07T20:36:44.430Z,16.81
2022-10-07T20:39:37.489Z,16.79
2022-10-07T20:42:21.732Z,16.79
2022-10-07T20:44:50.723Z,16.73
2022-10-07T20:47:20.058Z,16.68
2022-10-07T20:49:48.867Z,16.58
2022-10-07T20:52:23.496Z,16.52
2022-10-07T20:54:52.897Z,16.54
2022-10-07T20:57:33.868Z,16.50
2022-10-07T21:00:01.051Z,16.51
2022-10-07T21:02:29.153Z,16.51
2022-10-07T21:04:56.538Z,16.49
2022-10-07T21:07:23.942Z,16.44
2022-10-07T21:09:51.208Z,16.48
2022-10-07T21:12:18.810Z,16.48
2022-10-07T21:14:48.090Z,16.41
2022-10-07T21:17:16.825Z,16.36
2022-10-07T21:19:44.556Z,16.40
2022-10-07T21:22:11.991Z,16.37
2022-10-07T21:24:39.318Z,16.33
2022-10-07T21:27:08.616Z,16.28
2022-10-07T21:29:40.663Z,16.24
2022-10-07T21:32:10.321Z,16.20
2022-10-07T21:34:38.730Z,16.16
2022-10-07T21:37:06.443Z,16.15
2022-10-07T21:39:33.751Z,16.09
2022-10-07T21:42:01.913Z,16.13
2022-10-07T21:44:29.493Z,16.11
2022-10-07T21:46:59.903Z,16.08
2022-10-07T21:49:27.530Z,16.05
2022-10-07T21:51:54.787Z,16.08
2022-10-07T21:54:22.048Z,16.07
2022-10-07T21:56:50.206Z,16.08
2022-10-07T21:59:17.510Z,16.04
2022-10-07T22:01:44.750Z,16.05
2022-10-07T22:04:19.890Z,15.99
2022-10-07T22:07:06.022Z,15.99
2022-10-07T22:09:33.654Z,15.94
2022-10-07T22:12:00.978Z,15.96
2022-10-07T22:14:28.597Z,15.85
2022-10-07T22:16:55.823Z,15.83
2022-10-07T22:19:23.274Z,15.86
2022-10-07T22:21:50.823Z,15.73
2022-10-07T22:24:18.214Z,15.73
2022-10-07T22:26:47.740Z,15.67
2022-10-07T22:29:17.781Z,15.66
2022-10-07T22:31:45.874Z,15.69
2022-10-07T22:34:33.477Z,15.65
2022-10-07T22:37:01.827Z,15.65
2022-10-07T22:39:29.875Z,15.63
2022-10-07T22:42:01.303Z,15.63
2022-10-07T22:44:28.695Z,15.63
2022-10-07T22:46:59.291Z,15.63
2022-10-07T22:49:30.085Z,15.64
2022-10-07T22:52:00.097Z,15.59
2022-10-07T22:54:28.570Z,15.61
2022-10-07T22:56:55.924Z,15.64
2022-10-07T22:59:23.236Z,15.57
2022-10-07T23:01:50.834Z,15.61
2022-10-07T23:04:20.367Z,15.64
2022-10-07T23:06:47.746Z,15.59
2022-10-07T23:09:15.253Z,15.58
2022-10-07T23:11:42.478Z,15.54
2022-10-07T23:14:09.740Z,15.55
2022-10-07T23:16:37.170Z,15.54
2022-10-07T23:19:04.403Z,15.54
2022-10-07T23:21:35.058Z,15.51
2022-10-07T23:24:07.293Z,15.48
2022-10-07T23:26:35.703Z,15.45
2022-10-07T23:29:03.637Z,15.43
2022-10-07T23:31:32.745Z,15.34
2022-10-07T23:34:02.279Z,15.37
2022-10-07T23:36:31.014Z,15.33
2022-10-07T23:39:00.710Z,15.40
2022-10-07T23:41:31.132Z,15.37
2022-10-07T23:44:02.417Z,15.36
2022-10-07T23:46:33.965Z,15.38
2022-10-07T23:49:02.531Z,15.37
2022-10-07T23:51:32.411Z,15.44
2022-10-07T23:54:03.362Z,15.44
2022-10-07T23:56:32.076Z,15.37
2022-10-07T23:58:59.331Z,15.45
